createdAt,value
2022-10-05T00:01:57.702Z,8.45
2022-10-05T00:04:11.227Z,11.63
2022-10-05T00:06:14.023Z,12.93
2022-10-05T00:08:22.329Z,8.45
2022-10-05T00:10:25.878Z,7.78
2022-10-05T00:12:29.759Z,6.57
2022-10-05T00:14:36.029Z,7.97
2022-10-05T00:16:38.833Z,7.50
2022-10-05T00:18:41.882Z,8.25
2022-10-05T00:20:45.950Z,7.45
2022-10-05T00:22:49.003Z,9.48
2022-10-05T00:25:01.036Z,10.55
2022-10-05T00:27:15.605Z,8.85
2022-10-05T00:29:22.615Z,9.98
2022-10-05T00:31:27.329Z,6.65
2022-10-05T00:33:30.151Z,7.95
2022-10-05T00:35:36.314Z,6.40
2022-10-05T00:37:39.515Z,6.82
2022-10-05T00:39:43.910Z,7.30
2022-10-05T00:42:04.730Z,7.45
2022-10-05T00:44:25.193Z,6.63
2022-10-05T00:46:36.852Z,7.60
2022-10-05T00:48:47.024Z,8.73
2022-10-05T00:51:18.227Z,7.97
2022-10-05T00:53:34.022Z,8.02
2022-10-05T00:55:47.969Z,7.22
2022-10-05T00:58:07.263Z,8.27
2022-10-05T01:00:13.486Z,8.32
2022-10-05T01:02:22.520Z,8.38
2022-10-05T01:04:29.974Z,7.75
2022-10-05T01:06:40.996Z,7.82
2022-10-05T01:08:55.608Z,7.82
2022-10-05T01:11:06.879Z,7.07
2022-10-05T01:13:19.667Z,9.98
2022-10-05T01:15:32.405Z,10.50
2022-10-05T01:17:41.993Z,7.32
2022-10-05T01:20:07.617Z,9.48
2022-10-05T01:22:25.483Z,9.55
2022-10-05T01:24:45.032Z,9.48
2022-10-05T01:27:08.389Z,10.25
2022-10-05T01:29:19.585Z,8.93
2022-10-05T01:31:27.181Z,9.27
2022-10-05T01:33:36.166Z,8.95
2022-10-05T01:35:47.604Z,9.57
2022-10-05T01:38:05.087Z,9.82
2022-10-05T01:40:13.539Z,8.57
2022-10-05T01:42:24.465Z,9.27
2022-10-05T01:44:33.568Z,9.00
2022-10-05T01:46:43.017Z,8.82
2022-10-05T01:48:56.823Z,10.00
2022-10-05T01:51:11.685Z,9.55
2022-10-05T01:53:25.764Z,9.23
2022-10-05T01:55:35.908Z,8.45
2022-10-05T01:57:51.418Z,7.10
2022-10-05T02:00:05.476Z,9.38
2022-10-05T02:02:20.597Z,9.60
2022-10-05T02:05:00.308Z,8.77
2022-10-05T02:06:54.887Z,8.57
2022-10-05T02:09:05.484Z,8.23
2022-10-05T02:11:10.440Z,9.05
2022-10-05T02:13:18.183Z,9.38
2022-10-05T02:15:26.750Z,7.13
2022-10-05T02:17:36.294Z,8.68
2022-10-05T02:19:42.480Z,6.45
2022-10-05T02:21:49.358Z,7.15
2022-10-05T02:23:56.758Z,7.72
2022-10-05T02:26:01.912Z,7.88
2022-10-05T02:28:11.782Z,9.13
2022-10-05T02:30:18.372Z,8.90
2022-10-05T02:32:30.614Z,8.75
2022-10-05T02:34:38.472Z,8.13
2022-10-05T02:36:54.474Z,9.32
2022-10-05T02:39:06.222Z,8.52
2022-10-05T02:41:19.432Z,9.23
2022-10-05T02:43:31.909Z,9.98
2022-10-05T02:45:44.164Z,10.20
2022-10-05T02:47:56.171Z,8.77
2022-10-05T02:50:04.141Z,8.80
2022-10-05T02:52:13.575Z,9.45
2022-10-05T02:54:28.329Z,9.10
2022-10-05T02:56:41.936Z,8.73
2022-10-05T02:58:51.800Z,8.85
2022-10-05T03:01:01.082Z,9.18
2022-10-05T03:03:11.332Z,8.57
2022-10-05T03:05:22.142Z,9.90
2022-10-05T03:07:31.289Z,9.77
2022-10-05T03:09:42.245Z,9.90
2022-10-05T03:11:51.276Z,9.23
2022-10-05T03:14:02.766Z,9.13
2022-10-05T03:16:21.713Z,10.55
2022-10-05T03:18:39.527Z,10.25
2022-10-05T03:20:49.796Z,8.57
2022-10-05T03:22:58.151Z,10.07
2022-10-05T03:25:32.143Z,8.75
2022-10-05T03:27:44.391Z,9.48
2022-10-05T03:29:53.484Z,10.05
2022-10-05T03:32:06.863Z,9.93
2022-10-05T03:34:18.071Z,10.15
2022-10-05T03:36:27.485Z,9.15
2022-10-05T03:38:38.861Z,8.65
2022-10-05T03:40:47.841Z,9.60
2022-10-05T03:43:06.730Z,9.27
2022-10-05T03:45:19.109Z,10.82
2022-10-05T03:47:29.834Z,10.57
2022-10-05T03:49:48.936Z,8.27
2022-10-05T03:51:56.693Z,9.43
2022-10-05T03:54:06.734Z,10.50
2022-10-05T03:56:16.297Z,8.95
2022-10-05T03:58:25.281Z,10.68
2022-10-05T04:00:29.399Z,11.63
2022-10-05T04:02:43.089Z,10.65
2022-10-05T04:04:53.771Z,10.82
2022-10-05T04:06:58.796Z,9.82
2022-10-05T04:09:06.652Z,9.45
2022-10-05T04:11:15.434Z,10.55
2022-10-05T04:13:24.608Z,8.75
2022-10-05T04:15:34.663Z,10.45
2022-10-05T04:17:43.256Z,10.15
2022-10-05T04:19:57.722Z,10.48
2022-10-05T04:22:09.021Z,10.48
2022-10-05T04:24:18.462Z,9.55
2022-10-05T04:26:35.053Z,9.30
2022-10-05T04:28:46.783Z,10.57
2022-10-05T04:30:54.056Z,9.70
2022-10-05T04:33:00.127Z,11.60
2022-10-05T04:35:34.500Z,9.90
2022-10-05T04:37:48.130Z,10.88
2022-10-05T04:40:05.153Z,8.45
2022-10-05T04:42:16.820Z,9.20
2022-10-05T04:44:37.905Z,11.40
2022-10-05T04:46:58.321Z,12.00
2022-10-05T04:49:26.225Z,9.90
2022-10-05T04:51:38.925Z,12.10
2022-10-05T04:53:50.585Z,10.35
2022-10-05T04:55:59.507Z,10.00
2022-10-05T04:58:10.624Z,11.45
2022-10-05T05:00:23.381Z,11.38
2022-10-05T05:02:39.736Z,10.13
2022-10-05T05:05:15.367Z,10.32
2022-10-05T05:07:37.312Z,11.27
2022-10-05T05:10:02.417Z,8.85
2022-10-05T05:12:19.194Z,10.77
2022-10-05T05:14:42.244Z,11.82
2022-10-05T05:16:50.526Z,10.95
2022-10-05T05:19:18.923Z,10.60
2022-10-05T05:21:34.107Z,10.70
2022-10-05T05:23:45.325Z,10.65
2022-10-05T05:25:58.356Z,9.45
2022-10-05T05:28:16.705Z,10.20
2022-10-05T05:30:23.030Z,8.63
2022-10-05T05:32:39.959Z,9.40
2022-10-05T05:34:57.469Z,11.27
2022-10-05T05:37:05.545Z,9.88
2022-10-05T05:39:25.388Z,11.25
2022-10-05T05:41:37.010Z,11.52
2022-10-05T05:44:00.397Z,11.95
2022-10-05T05:46:11.918Z,12.48
2022-10-05T05:48:20.973Z,11.43
2022-10-05T05:50:42.857Z,9.32
2022-10-05T05:52:51.044Z,10.18
2022-10-05T05:54:59.214Z,11.65
2022-10-05T05:57:11.733Z,12.85
2022-10-05T05:59:23.197Z,12.73
2022-10-05T06:01:33.589Z,11.68
2022-10-05T06:03:47.776Z,13.38
2022-10-05T06:05:54.914Z,14.73
2022-10-05T06:08:02.217Z,15.65
2022-10-05T06:10:30.392Z,14.70
2022-10-05T06:12:46.913Z,15.02
2022-10-05T06:14:54.321Z,17.73
2022-10-05T06:17:04.221Z,16.38
2022-10-05T06:19:13.197Z,16.02
2022-10-05T06:21:23.709Z,15.40
2022-10-05T06:23:34.276Z,19.90
2022-10-05T06:25:52.156Z,16.67
2022-10-05T06:28:03.565Z,14.77
2022-10-05T06:30:13.023Z,16.48
2022-10-05T06:32:28.057Z,16.80
2022-10-05T06:34:54.636Z,18.88
2022-10-05T06:37:01.289Z,17.95
2022-10-05T06:39:32.796Z,19.48
2022-10-05T06:41:50.373Z,17.27
2022-10-05T06:43:59.633Z,14.90
2022-10-05T06:46:30.982Z,18.83
2022-10-05T06:49:13.797Z,16.10
2022-10-05T06:51:51.978Z,18.88
2022-10-05T06:54:15.004Z,17.90
2022-10-05T06:56:26.645Z,21.60
2022-10-05T06:58:45.957Z,15.77
2022-10-05T07:00:54.072Z,20.80
2022-10-05T07:03:04.670Z,17.50
2022-10-05T07:05:38.919Z,18.58
2022-10-05T07:07:52.350Z,18.38
2022-10-05T07:10:09.709Z,17.10
2022-10-05T07:12:45.068Z,18.80
2022-10-05T07:15:02.247Z,17.33
2022-10-05T07:17:21.045Z,17.85
2022-10-05T07:19:35.428Z,16.83
2022-10-05T07:21:45.908Z,14.43
2022-10-05T07:23:57.961Z,15.70
2022-10-05T07:26:07.106Z,16.88
2022-10-05T07:28:18.794Z,14.27
2022-10-05T07:30:23.824Z,11.65
2022-10-05T07:32:34.649Z,15.52
2022-10-05T07:34:48.916Z,11.95
2022-10-05T07:37:13.982Z,12.85
2022-10-05T07:39:36.748Z,13.32
2022-10-05T07:41:54.587Z,13.63
2022-10-05T07:44:08.885Z,13.02
2022-10-05T07:46:22.189Z,13.75
2022-10-05T07:48:33.177Z,16.60
2022-10-05T07:50:45.129Z,12.18
2022-10-05T07:52:54.984Z,14.48
2022-10-05T07:55:06.356Z,16.75
2022-10-05T07:57:21.992Z,12.77
2022-10-05T07:59:35.571Z,13.98
2022-10-05T08:01:44.989Z,15.25
2022-10-05T08:03:54.062Z,13.48
2022-10-05T08:08:19.636Z,11.63
2022-10-05T08:12:35.654Z,11.40
2022-10-05T08:14:45.830Z,13.00
2022-10-05T08:16:53.323Z,11.20
2022-10-05T08:19:00.671Z,11.75
2022-10-05T08:21:11.735Z,12.70
2022-10-05T08:23:22.411Z,10.23
2022-10-05T08:25:27.986Z,12.80
2022-10-05T08:27:39.988Z,11.27
2022-10-05T08:29:51.341Z,11.82
2022-10-05T08:32:01.505Z,11.32
2022-10-05T08:34:20.120Z,10.23
2022-10-05T08:36:28.209Z,10.48
2022-10-05T08:38:33.767Z,10.43
2022-10-05T08:41:09.398Z,11.90
2022-10-05T08:43:30.654Z,8.77
2022-10-05T08:46:11.594Z,9.10
2022-10-05T08:48:43.600Z,8.10
2022-10-05T08:51:10.374Z,8.77
2022-10-05T08:53:25.030Z,10.90
2022-10-05T08:55:38.824Z,9.75
2022-10-05T08:58:14.170Z,10.02
2022-10-05T09:00:20.317Z,9.48
2022-10-05T09:02:33.243Z,13.43
2022-10-05T09:04:53.468Z,10.93
2022-10-05T09:07:10.786Z,10.65
2022-10-05T09:09:42.117Z,10.88
2022-10-05T09:11:55.033Z,10.02
2022-10-05T09:14:15.368Z,8.82
2022-10-05T09:16:39.690Z,10.65
2022-10-05T09:19:17.571Z,9.02
2022-10-05T09:21:35.208Z,10.50
2022-10-05T09:23:40.616Z,8.82
2022-10-05T09:25:58.703Z,8.68
2022-10-05T09:28:18.877Z,7.82
2022-10-05T09:30:27.901Z,8.07
2022-10-05T09:33:04.709Z,9.20
2022-10-05T09:35:22.516Z,8.05
2022-10-05T09:37:57.711Z,8.20
2022-10-05T09:40:41.494Z,8.13
2022-10-05T09:43:15.893Z,8.02
2022-10-05T09:45:43.585Z,8.25
2022-10-05T09:48:13.774Z,8.63
2022-10-05T09:50:48.625Z,7.63
2022-10-05T09:53:14.594Z,7.57
2022-10-05T09:55:52.196Z,7.50
2022-10-05T09:58:31.262Z,7.32
2022-10-05T10:00:55.668Z,6.97
2022-10-05T10:03:42.944Z,6.55
2022-10-05T10:06:28.709Z,7.30
2022-10-05T10:08:44.342Z,6.63
2022-10-05T10:11:01.281Z,5.55
2022-10-05T10:13:25.351Z,5.78
2022-10-05T10:16:04.629Z,5.40
2022-10-05T10:18:52.221Z,5.60
2022-10-05T10:21:21.646Z,5.03
2022-10-05T10:23:54.755Z,4.53
2022-10-05T10:26:16.226Z,4.60
2022-10-05T10:28:50.583Z,4.63
2022-10-05T10:31:06.938Z,5.40
2022-10-05T10:33:43.611Z,5.03
2022-10-05T10:35:55.541Z,6.30
2022-10-05T10:38:17.635Z,5.32
2022-10-05T10:40:30.318Z,5.07
2022-10-05T10:42:42.815Z,4.80
2022-10-05T10:45:01.965Z,4.60
2022-10-05T10:47:39.848Z,4.57
2022-10-05T10:50:08.804Z,4.60
2022-10-05T10:52:28.295Z,3.92
2022-10-05T10:54:53.814Z,3.97
2022-10-05T10:59:32.847Z,3.95
2022-10-05T11:01:39.668Z,3.33
2022-10-05T11:04:20.077Z,3.67
2022-10-05T11:06:34.374Z,3.55
2022-10-05T11:09:04.173Z,3.90
2022-10-05T11:11:23.262Z,3.78
2022-10-05T11:13:45.666Z,3.83
2022-10-05T11:16:31.825Z,2.80
2022-10-05T11:18:52.619Z,3.22
2022-10-05T11:21:18.288Z,3.80
2022-10-05T11:23:39.021Z,3.38
2022-10-05T11:26:10.434Z,3.40
2022-10-05T11:28:46.432Z,2.80
2022-10-05T11:33:49.250Z,3.15
2022-10-05T11:36:18.278Z,3.45
2022-10-05T11:38:50.182Z,2.83
2022-10-05T11:41:25.082Z,3.25
2022-10-05T11:44:12.735Z,3.30
2022-10-05T11:46:20.741Z,3.63
2022-10-05T11:48:35.005Z,3.50
2022-10-05T11:50:45.422Z,3.88
2022-10-05T11:52:52.682Z,3.03
2022-10-05T11:55:14.700Z,2.90
2022-10-05T11:57:21.410Z,3.17
2022-10-05T11:59:35.432Z,2.83
2022-10-05T12:01:45.739Z,3.20
2022-10-05T12:04:00.620Z,3.42
2022-10-05T12:08:35.649Z,2.70
2022-10-05T12:10:46.565Z,2.67
2022-10-05T12:13:11.847Z,2.60
2022-10-05T12:15:23.395Z,2.60
2022-10-05T12:17:35.841Z,2.40
2022-10-05T12:19:42.035Z,2.85
2022-10-05T12:21:53.006Z,2.97
2022-10-05T12:24:00.124Z,2.80
2022-10-05T12:26:06.090Z,3.00
2022-10-05T12:28:13.768Z,2.85
2022-10-05T12:30:26.205Z,2.58
2022-10-05T12:32:36.996Z,2.90
2022-10-05T12:34:52.887Z,2.92
2022-10-05T12:37:04.033Z,2.65
2022-10-05T12:39:16.854Z,3.60
2022-10-05T12:41:26.322Z,2.95
2022-10-05T12:43:36.511Z,3.03
2022-10-05T12:45:56.017Z,2.70
2022-10-05T12:48:25.074Z,2.97
2022-10-05T12:50:31.537Z,3.00
2022-10-05T12:52:48.940Z,3.10
2022-10-05T12:55:02.679Z,3.28
2022-10-05T12:57:15.432Z,3.00
2022-10-05T12:59:29.493Z,2.60
2022-10-05T13:01:42.010Z,3.37
2022-10-05T13:03:52.922Z,2.40
2022-10-05T13:06:09.776Z,2.70
2022-10-05T13:08:23.493Z,2.88
2022-10-05T13:10:34.204Z,2.88
2022-10-05T13:12:48.911Z,2.15
2022-10-05T13:15:00.900Z,2.60
2022-10-05T13:17:11.145Z,2.50
2022-10-05T13:19:28.622Z,2.33
2022-10-05T13:21:49.648Z,2.50
2022-10-05T13:23:59.770Z,2.92
2022-10-05T13:26:07.751Z,2.10
2022-10-05T13:28:16.816Z,1.90
2022-10-05T13:30:21.739Z,1.90
2022-10-05T13:32:28.220Z,2.22
2022-10-05T13:34:38.498Z,2.13
2022-10-05T13:36:52.025Z,2.20
2022-10-05T13:39:03.695Z,1.83
2022-10-05T13:41:12.646Z,2.03
2022-10-05T13:43:23.882Z,2.15
2022-10-05T13:45:32.674Z,2.35
2022-10-05T13:47:44.888Z,2.58
2022-10-05T13:49:53.637Z,1.92
2022-10-05T13:52:01.307Z,2.17
2022-10-05T13:54:11.556Z,2.30
2022-10-05T13:56:20.274Z,2.20
2022-10-05T13:58:33.966Z,1.92
2022-10-05T14:00:46.378Z,2.03
2022-10-05T14:02:53.121Z,2.15
2022-10-05T14:05:00.850Z,2.17
2022-10-05T14:07:22.377Z,1.70
2022-10-05T14:09:30.912Z,2.10
2022-10-05T14:11:36.046Z,2.15
2022-10-05T14:13:47.515Z,2.20
2022-10-05T14:16:04.643Z,2.22
2022-10-05T14:18:24.215Z,2.50
2022-10-05T14:20:30.980Z,1.90
2022-10-05T14:22:42.701Z,2.30
2022-10-05T14:24:52.403Z,2.33
2022-10-05T14:26:57.318Z,2.05
2022-10-05T14:29:02.597Z,2.22
2022-10-05T14:31:15.445Z,2.55
2022-10-05T14:33:30.422Z,2.35
2022-10-05T14:35:48.834Z,2.50
2022-10-05T14:37:57.058Z,2.35
2022-10-05T14:40:03.719Z,2.08
2022-10-05T14:42:15.911Z,2.33
2022-10-05T14:44:29.620Z,2.28
2022-10-05T14:46:33.933Z,2.17
2022-10-05T14:48:43.602Z,2.45
2022-10-05T14:50:55.484Z,2.10
2022-10-05T14:53:09.795Z,2.40
2022-10-05T14:55:31.128Z,2.40
2022-10-05T14:57:41.983Z,2.30
2022-10-05T15:00:10.316Z,2.60
2022-10-05T15:02:38.789Z,2.63
2022-10-05T15:04:49.867Z,2.22
2022-10-05T15:07:05.218Z,2.80
2022-10-05T15:09:26.055Z,2.15
2022-10-05T15:11:40.301Z,2.78
2022-10-05T15:13:46.175Z,2.50
2022-10-05T15:15:54.555Z,2.05
2022-10-05T15:18:01.990Z,2.15
2022-10-05T15:20:18.805Z,2.33
2022-10-05T15:22:31.641Z,2.22
2022-10-05T15:24:43.699Z,2.45
2022-10-05T15:26:51.485Z,2.10
2022-10-05T15:29:01.081Z,2.55
2022-10-05T15:31:06.610Z,2.40
2022-10-05T15:33:16.797Z,2.17
2022-10-05T15:35:36.905Z,2.28
2022-10-05T15:37:44.590Z,2.13
2022-10-05T15:39:53.455Z,2.90
2022-10-05T15:42:00.736Z,2.55
2022-10-05T15:44:09.957Z,2.45
2022-10-05T15:46:16.421Z,2.22
2022-10-05T15:48:22.873Z,2.17
2022-10-05T15:50:32.217Z,2.30
2022-10-05T15:52:41.662Z,2.50
2022-10-05T15:55:19.393Z,2.03
2022-10-05T15:57:26.537Z,2.40
2022-10-05T15:59:37.430Z,2.28
2022-10-05T16:01:48.126Z,2.50
2022-10-05T16:03:55.325Z,2.17
2022-10-05T16:06:24.656Z,2.33
2022-10-05T16:08:58.540Z,3.05
2022-10-05T16:11:03.646Z,2.42
2022-10-05T16:13:20.035Z,2.38
2022-10-05T16:15:29.157Z,2.35
2022-10-05T16:17:47.941Z,1.88
2022-10-05T16:20:04.073Z,2.00
2022-10-05T16:22:21.619Z,2.33
2022-10-05T16:24:49.226Z,2.10
2022-10-05T16:26:59.073Z,2.33
2022-10-05T16:29:09.584Z,2.20
2022-10-05T16:31:18.696Z,2.80
2022-10-05T16:33:29.136Z,2.72
2022-10-05T16:35:44.442Z,2.38
2022-10-05T16:37:58.392Z,2.40
2022-10-05T16:40:04.215Z,1.58
2022-10-05T16:42:17.285Z,2.08
2022-10-05T16:44:33.533Z,2.30
2022-10-05T16:46:45.177Z,1.85
2022-10-05T16:48:56.271Z,2.50
2022-10-05T16:51:24.008Z,2.10
2022-10-05T16:53:31.815Z,2.20
2022-10-05T16:55:38.572Z,2.28
2022-10-05T16:57:45.093Z,2.13
2022-10-05T17:00:03.794Z,2.25
2022-10-05T17:02:15.122Z,2.15
2022-10-05T17:04:31.751Z,2.38
2022-10-05T17:06:54.915Z,2.75
2022-10-05T17:09:16.984Z,2.85
2022-10-05T17:11:34.631Z,2.60
2022-10-05T17:13:55.055Z,2.38
2022-10-05T17:16:11.000Z,2.80
2022-10-05T17:18:29.255Z,2.80
2022-10-05T17:20:44.600Z,2.88
2022-10-05T17:22:52.778Z,3.63
2022-10-05T17:25:04.580Z,3.90
2022-10-05T17:27:19.934Z,3.90
2022-10-05T17:29:47.554Z,4.32
2022-10-05T17:32:10.655Z,4.28
2022-10-05T17:34:29.134Z,6.05
2022-10-05T17:36:43.731Z,18.55
2022-10-05T17:38:49.688Z,15.13
2022-10-05T17:41:19.735Z,14.48
2022-10-05T17:43:25.496Z,6.03
2022-10-05T17:45:58.296Z,3.15
2022-10-05T17:48:04.091Z,3.20
2022-10-05T17:50:42.048Z,2.70
2022-10-05T17:53:03.958Z,2.63
2022-10-05T17:55:39.291Z,2.33
2022-10-05T17:57:43.456Z,2.05
2022-10-05T17:59:49.359Z,2.60
2022-10-05T18:02:16.749Z,2.00
2022-10-05T18:04:42.211Z,1.75
2022-10-05T18:08:51.272Z,2.13
2022-10-05T18:11:17.131Z,2.15
2022-10-05T18:13:35.870Z,2.33
2022-10-05T18:15:45.697Z,1.80
2022-10-05T18:17:51.370Z,1.80
2022-10-05T18:20:13.223Z,1.45
2022-10-05T18:22:30.278Z,2.20
2022-10-05T18:25:03.432Z,2.03
2022-10-05T18:27:28.635Z,1.60
2022-10-05T18:30:05.357Z,1.50
2022-10-05T18:32:20.206Z,1.65
2022-10-05T18:34:32.203Z,1.52
2022-10-05T18:36:51.184Z,1.63
2022-10-05T18:39:03.977Z,2.38
2022-10-05T18:41:14.365Z,1.65
2022-10-05T18:43:30.035Z,1.70
2022-10-05T18:45:48.022Z,1.42
2022-10-05T18:48:01.544Z,1.40
2022-10-05T18:50:16.623Z,1.13
2022-10-05T18:52:28.254Z,1.63
2022-10-05T18:54:54.691Z,1.92
2022-10-05T18:56:57.470Z,1.67
2022-10-05T18:59:15.023Z,1.40
2022-10-05T19:01:34.999Z,2.08
2022-10-05T19:03:51.109Z,1.92
2022-10-05T19:06:06.586Z,1.90
2022-10-05T19:08:21.670Z,1.40
2022-10-05T19:10:32.512Z,1.73
2022-10-05T19:12:46.279Z,1.45
2022-10-05T19:14:59.332Z,1.13
2022-10-05T19:17:25.063Z,1.38
2022-10-05T19:19:49.238Z,1.63
2022-10-05T19:22:00.058Z,1.50
2022-10-05T19:24:19.779Z,1.45
2022-10-05T19:26:39.193Z,1.45
2022-10-05T19:28:50.871Z,1.83
2022-10-05T19:31:07.958Z,1.80
2022-10-05T19:33:29.300Z,2.28
2022-10-05T19:35:39.306Z,1.40
2022-10-05T19:37:57.699Z,1.58
2022-10-05T19:40:09.738Z,1.35
2022-10-05T19:42:31.015Z,1.23
2022-10-05T19:44:52.275Z,1.00
2022-10-05T19:47:01.021Z,1.27
2022-10-05T19:49:09.563Z,1.60
2022-10-05T19:51:15.863Z,1.20
2022-10-05T19:53:25.959Z,1.60
2022-10-05T19:55:35.361Z,1.45
2022-10-05T19:57:47.434Z,1.58
2022-10-05T19:59:50.360Z,1.40
2022-10-05T20:01:55.555Z,1.40
2022-10-05T20:03:59.054Z,1.50
2022-10-05T20:06:05.150Z,1.30
2022-10-05T20:08:12.401Z,1.42
2022-10-05T20:10:28.924Z,1.13
2022-10-05T20:12:51.472Z,1.50
2022-10-05T20:15:26.118Z,1.70
2022-10-05T20:17:47.388Z,1.15
2022-10-05T20:20:12.896Z,2.10
2022-10-05T20:24:50.789Z,1.42
2022-10-05T20:27:16.183Z,1.50
2022-10-05T20:29:19.105Z,1.75
2022-10-05T20:31:22.410Z,1.67
2022-10-05T20:33:26.480Z,1.55
2022-10-05T20:35:30.621Z,1.30
2022-10-05T20:37:36.653Z,1.40
2022-10-05T20:39:40.205Z,1.50
2022-10-05T20:41:43.288Z,2.00
2022-10-05T20:43:46.129Z,2.00
2022-10-05T20:45:48.889Z,1.52
2022-10-05T20:47:51.713Z,1.90
2022-10-05T20:49:55.271Z,1.90
2022-10-05T20:51:58.980Z,1.90
2022-10-05T20:54:03.037Z,2.17
2022-10-05T20:56:06.271Z,2.35
2022-10-05T20:58:11.023Z,2.33
2022-10-05T21:00:14.786Z,1.80
2022-10-05T21:02:18.816Z,2.17
2022-10-05T21:04:23.169Z,2.08
2022-10-05T21:06:27.995Z,2.40
2022-10-05T21:08:31.141Z,2.42
2022-10-05T21:10:36.835Z,3.08
2022-10-05T21:12:39.565Z,8.65
2022-10-05T21:14:42.391Z,2.45
2022-10-05T21:16:45.885Z,1.70
2022-10-05T21:18:50.077Z,1.53
2022-10-05T21:20:53.056Z,2.03
2022-10-05T21:22:55.782Z,2.50
2022-10-05T21:24:58.521Z,1.83
2022-10-05T21:27:02.881Z,2.22
2022-10-05T21:29:11.516Z,3.25
2022-10-05T21:31:15.258Z,2.40
2022-10-05T21:33:18.023Z,3.05
2022-10-05T21:35:20.838Z,2.13
2022-10-05T21:37:23.701Z,1.90
2022-10-05T21:39:26.889Z,1.80
2022-10-05T21:41:29.597Z,2.17
2022-10-05T21:43:33.691Z,2.92
2022-10-05T21:45:36.533Z,2.55
2022-10-05T21:47:39.374Z,3.15
2022-10-05T21:49:42.573Z,3.00
2022-10-05T21:51:46.083Z,3.80
2022-10-05T21:53:52.814Z,2.72
2022-10-05T21:55:57.709Z,2.22
2022-10-05T21:58:04.158Z,1.98
2022-10-05T22:00:10.862Z,2.63
2022-10-05T22:02:13.593Z,2.10
2022-10-05T22:04:16.566Z,2.13
2022-10-05T22:06:19.301Z,2.00
2022-10-05T22:08:24.990Z,2.53
2022-10-05T22:10:28.909Z,3.28
2022-10-05T22:12:32.081Z,2.92
2022-10-05T22:14:34.836Z,2.60
2022-10-05T22:16:40.374Z,2.40
2022-10-05T22:18:43.682Z,2.22
2022-10-05T22:20:47.107Z,2.22
2022-10-05T22:22:50.176Z,2.22
2022-10-05T22:24:53.656Z,2.38
2022-10-05T22:26:56.410Z,2.50
2022-10-05T22:28:59.153Z,2.13
2022-10-05T22:31:05.136Z,2.47
2022-10-05T22:33:09.716Z,2.22
2022-10-05T22:37:15.532Z,2.40
2022-10-05T22:39:18.719Z,2.60
2022-10-05T22:41:21.590Z,2.08
2022-10-05T22:43:26.892Z,2.22
2022-10-05T22:45:32.572Z,1.77
2022-10-05T22:47:35.959Z,2.42
2022-10-05T22:49:40.109Z,2.33
2022-10-05T22:51:42.985Z,2.30
2022-10-05T22:53:45.735Z,2.13
2022-10-05T22:55:48.494Z,2.20
2022-10-05T22:57:51.417Z,2.45
2022-10-05T22:59:54.150Z,2.60
2022-10-05T23:01:56.971Z,2.50
2022-10-05T23:03:59.813Z,8.25
2022-10-05T23:06:08.166Z,2.95
2022-10-05T23:08:10.924Z,2.45
2022-10-05T23:10:16.307Z,2.53
2022-10-05T23:12:19.041Z,2.67
2022-10-05T23:14:23.041Z,2.88
2022-10-05T23:16:29.147Z,2.65
2022-10-05T23:18:33.318Z,2.67
2022-10-05T23:20:36.960Z,2.28
2022-10-05T23:22:41.075Z,2.23
2022-10-05T23:24:43.857Z,2.30
2022-10-05T23:26:46.584Z,2.13
2022-10-05T23:28:50.237Z,2.30
2022-10-05T23:30:53.125Z,2.10
2022-10-05T23:32:55.917Z,2.67
2022-10-05T23:34:58.664Z,2.17
2022-10-05T23:37:01.487Z,2.75
2022-10-05T23:39:05.634Z,2.70
2022-10-05T23:41:08.860Z,2.20
2022-10-05T23:43:11.625Z,2.30
2022-10-05T23:45:15.463Z,2.30
2022-10-05T23:47:18.290Z,3.05
2022-10-05T23:49:21.018Z,2.63
2022-10-05T23:51:23.774Z,2.22
2022-10-05T23:53:26.728Z,2.13
2022-10-05T23:55:31.068Z,2.30
2022-10-05T23:57:33.881Z,2.80
2022-10-05T23:59:36.786Z,2.70
